Time;durP1;ratioP1;P1;durP2;ratioP2;P2;SDS_P1;SDS_P2;PMS_P1;PMS_P2;Temp;Humidity;BMP_temperature;BMP_pressure;BME280_temperature;BME280_humidity;BME280_pressure;Samples;Min_cycle;Max_cycle;Signal;HPM_P1;HPM_P2
2022/05/11 00:01:26;;;;;;;7.03;1.65;;;;;;;12.98;52.65;99610.75;4990087;28;20483;-48
2022/05/11 00:03:53;;;;;;;3.08;0.70;;;;;;;12.97;53.51;99600.41;4991963;28;20461;-46
2022/05/11 00:06:20;;;;;;;4.72;1.10;;;;;;;12.93;53.78;99604.78;4990753;28;20046;-45
2022/05/11 00:08:46;;;;;;;6.75;0.95;;;;;;;12.93;53.76;99607.41;4989886;28;20042;-44
2022/05/11 00:11:14;;;;;;;3.33;0.80;;;;;;;12.93;53.72;99610.00;4991005;28;20050;-44
2022/05/11 00:13:41;;;;;;;4.07;1.00;;;;;;;12.95;53.71;99596.97;4989930;28;20042;-47
2022/05/11 00:16:08;;;;;;;8.13;1.35;;;;;;;12.94;52.82;99590.91;4990831;28;20104;-43
2022/05/11 00:18:35;;;;;;;6.05;0.93;;;;;;;12.93;53.34;99593.53;4991299;28;20120;-44
2022/05/11 00:21:02;;;;;;;7.05;0.88;;;;;;;12.92;53.58;99581.44;4991006;28;20092;-43
2022/05/11 00:23:29;;;;;;;5.80;1.10;;;;;;;12.91;53.56;99584.91;4989460;28;20632;-46
2022/05/11 00:25:56;;;;;;;2.65;0.43;;;;;;;12.89;53.96;99602.28;4990511;28;20042;-47
2022/05/11 00:28:23;;;;;;;4.13;0.65;;;;;;;12.88;52.93;99595.38;4989828;28;20104;-48
2022/05/11 00:30:49;;;;;;;9.30;2.42;;;;;;;12.87;53.48;99589.31;4986024;28;20441;-44
2022/05/11 00:33:17;;;;;;;11.65;2.25;;;;;;;12.87;53.72;99575.47;4987808;28;20077;-47
2022/05/11 00:35:45;;;;;;;3.13;1.08;;;;;;;12.85;53.49;99571.16;4987060;28;20960;-43
2022/05/11 00:38:13;;;;;;;3.03;0.85;;;;;;;12.85;54.35;99575.50;4984329;28;20046;-44
2022/05/11 00:40:44;;;;;;;4.78;0.40;;;;;;;12.83;54.44;99575.53;4980061;28;20046;-45
2022/05/11 00:43:10;;;;;;;7.72;2.65;;;;;;;12.83;54.28;99556.47;4971458;28;20117;-45
2022/05/11 00:45:45;;;;;;;7.10;0.90;;;;;;;12.80;53.76;99572.97;4985735;28;20046;-43
2022/05/11 00:51:10;;;;;;;4.13;0.68;;;;;;;12.80;54.31;99567.78;4982268;28;20561;-42
2022/05/11 00:53:38;;;;;;;;;;;;;;;12.67;54.79;99566.31;4985697;28;20072;-49
2022/05/11 00:56:05;;;;;;;13.35;2.95;;;;;;;12.76;53.80;99565.31;4985618;28;19976;-43
2022/05/11 00:58:38;;;;;;;10.60;3.00;;;;;;;12.75;54.58;99564.44;4985590;28;20081;-46
2022/05/11 01:01:06;;;;;;;5.35;0.88;;;;;;;12.73;54.62;99563.59;4985683;28;20050;-48
2022/05/11 01:03:39;;;;;;;3.45;0.85;;;;;;;12.73;55.66;99556.66;4984239;28;20537;-45
2022/05/11 01:06:08;;;;;;;2.97;0.40;;;;;;;12.73;55.45;99540.22;4983943;28;20103;-43
2022/05/11 01:08:35;;;;;;;12.68;1.83;;;;;;;12.72;55.35;99551.50;4983015;28;20541;-51
2022/05/11 01:11:05;;;;;;;10.57;2.65;;;;;;;12.71;54.10;99547.19;4985483;28;20530;-46
2022/05/11 01:13:33;;;;;;;7.47;1.45;;;;;;;12.71;55.08;99542.00;4986973;28;20054;-44
2022/05/11 01:16:00;;;;;;;4.22;0.70;;;;;;;12.70;54.57;99545.50;4983784;28;20050;-47
2022/05/11 01:18:29;;;;;;;3.80;0.55;;;;;;;12.70;55.50;99550.69;4985463;28;20050;-43
2022/05/11 01:20:56;;;;;;;24.95;7.00;;;;;;;12.69;54.97;99543.75;4983680;28;20053;-43
2022/05/11 01:23:52;;;;;;;6.70;1.15;;;;;;;12.66;56.04;99538.66;4983199;28;20733;-44
2022/05/11 01:31:31;;;;;;;6.05;1.40;;;;;;;12.68;56.07;99536.84;5051009;27;20744;-43
2022/05/11 01:33:58;;;;;;;12.68;1.85;;;;;;;12.68;55.39;99531.66;5016552;28;20046;-43
2022/05/11 01:39:05;;;;;;;8.68;1.75;;;;;;;12.67;55.61;99525.59;5044428;27;20401;-50
2022/05/11 01:44:14;;;;;;;12.40;3.42;;;;;;;12.63;56.06;99523.94;5055701;27;20402;-43
2022/05/11 01:46:48;;;;;;;3.78;1.77;;;;;;;12.62;55.72;99516.19;5028587;28;20104;-44
2022/05/11 01:49:15;;;;;;;4.43;1.35;;;;;;;12.60;55.52;99509.28;5023711;28;20050;-47
2022/05/11 01:51:42;;;;;;;8.15;1.88;;;;;;;12.62;55.60;99504.06;5028739;28;20058;-44
2022/05/11 01:54:09;;;;;;;10.55;1.77;;;;;;;12.60;56.96;99491.09;5026745;28;20056;-47
2022/05/11 01:56:36;;;;;;;8.27;2.42;;;;;;;12.59;56.88;99479.00;5030499;28;20053;-48
2022/05/11 01:59:03;;;;;;;6.75;1.35;;;;;;;12.57;57.15;99482.53;5025628;28;20120;-48
2022/05/11 02:01:31;;;;;;;6.07;1.90;;;;;;;12.58;57.29;99479.03;5025288;28;20053;-43
2022/05/11 02:03:58;;;;;;;9.07;2.90;;;;;;;12.58;57.04;99479.91;5023679;28;20048;-43
2022/05/11 02:09:12;;;;;;;3.13;1.55;;;;;;;12.56;57.77;99506.75;5026877;28;20042;-44
2022/05/11 02:11:40;;;;;;;8.18;1.85;;;;;;;12.56;56.65;99492.03;5025762;28;20052;-46
2022/05/11 02:14:06;;;;;;;8.38;1.45;;;;;;;12.53;58.48;99493.84;5024545;28;20050;-44
2022/05/11 02:16:33;;;;;;;3.20;1.33;;;;;;;12.52;57.93;99485.19;5025721;28;20056;-43
2022/05/11 02:19:00;;;;;;;7.35;1.52;;;;;;;12.51;57.13;99478.31;5028700;28;20053;-42
2022/05/11 02:21:26;;;;;;;12.82;2.15;;;;;;;12.48;58.79;99467.97;5024170;28;20197;-49
2022/05/11 02:23:53;;;;;;;4.97;2.30;;;;;;;12.49;57.60;99468.84;5025977;28;20046;-46
2022/05/11 02:26:20;;;;;;;6.85;1.20;;;;;;;12.46;58.01;99461.94;5027341;28;20412;-46
2022/05/11 02:28:49;;;;;;;9.05;2.28;;;;;;;12.42;58.53;99460.28;5025150;28;20041;-46
2022/05/11 02:31:16;;;;;;;5.60;1.73;;;;;;;12.43;57.89;99459.41;5021291;28;20053;-41
2022/05/11 02:33:43;;;;;;;6.00;1.63;;;;;;;12.42;59.01;99452.50;5029207;28;20132;-44
2022/05/11 02:36:10;;;;;;;6.57;1.52;;;;;;;12.41;59.44;99450.78;5027047;28;20065;-45
2022/05/11 02:38:41;;;;;;;4.88;2.05;;;;;;;12.40;58.68;99451.69;5026321;28;20045;-47
2022/05/11 02:41:08;;;;;;;9.63;1.67;;;;;;;12.39;59.42;99466.41;5031492;28;20072;-47
2022/05/11 02:43:35;;;;;;;6.10;1.58;;;;;;;12.39;58.52;99462.97;5021419;28;20042;-44
2022/05/11 02:46:02;;;;;;;5.90;1.52;;;;;;;12.37;59.33;99454.34;5029427;28;20506;-45
2022/05/11 02:48:31;;;;;;;5.28;0.90;;;;;;;12.38;58.68;99450.84;5028318;28;20408;-43
2022/05/11 02:50:58;;;;;;;3.72;1.92;;;;;;;12.38;59.80;99448.25;5026497;28;20093;-45
2022/05/11 02:53:27;;;;;;;7.50;2.05;;;;;;;12.40;59.04;99449.09;5027233;28;20062;-44
2022/05/11 02:55:55;;;;;;;7.68;1.85;;;;;;;12.40;58.85;99449.09;5012987;28;20042;-44
2022/05/11 02:58:25;;;;;;;9.93;2.58;;;;;;;12.39;58.57;99448.22;5015447;28;21564;-45
2022/05/11 03:01:09;;;;;;;7.18;1.67;;;;;;;12.36;58.94;99458.66;5009129;28;20049;-42
2022/05/11 03:03:36;;;;;;;7.97;1.90;;;;;;;12.34;58.99;99456.09;5010658;28;20053;-45
2022/05/11 03:06:05;;;;;;;5.63;2.33;;;;;;;12.31;59.30;99456.19;5012194;28;20419;-47
2022/05/11 03:08:33;;;;;;;7.43;1.80;;;;;;;12.31;59.70;99450.97;5013300;28;20049;-46
2022/05/11 03:11:00;;;;;;;8.85;2.33;;;;;;;12.31;59.84;99455.31;5013274;28;20240;-46
2022/05/11 03:13:27;;;;;;;7.40;1.85;;;;;;;12.29;60.54;99452.75;5014285;28;20140;-44
2022/05/11 03:15:53;;;;;;;3.92;1.42;;;;;;;12.29;59.55;99451.91;5015550;28;20054;-42
2022/05/11 03:18:20;;;;;;;5.00;2.30;;;;;;;12.27;59.66;99435.50;5009628;28;20478;-45
2022/05/11 03:20:47;;;;;;;2.85;1.05;;;;;;;12.27;60.33;99438.94;5011904;28;20127;-43
2022/05/11 03:23:13;;;;;;;4.25;1.88;;;;;;;12.26;59.80;99434.63;5014638;28;20061;-45
2022/05/11 03:25:40;;;;;;;10.13;3.17;;;;;;;12.26;60.45;99437.22;5013702;28;20053;-47
2022/05/11 03:28:07;;;;;;;8.10;1.48;;;;;;;12.25;59.71;99430.31;5013044;28;20058;-42
2022/05/11 03:30:33;;;;;;;5.40;2.00;;;;;;;12.24;60.61;99427.75;5013467;28;20482;-47
2022/05/11 03:35:46;;;;;;;5.45;1.55;;;;;;;12.23;59.75;99426.91;5012255;28;20452;-43
2022/05/11 03:38:13;;;;;;;2.97;1.63;;;;;;;12.22;60.02;99427.78;5012727;28;20520;-47
2022/05/11 03:40:39;;;;;;;6.68;2.00;;;;;;;12.23;59.65;99431.25;5009196;28;20474;-47
2022/05/11 03:43:06;;;;;;;6.20;1.65;;;;;;;12.22;60.36;99435.56;5006456;28;20483;-45
2022/05/11 03:45:34;;;;;;;8.38;1.58;;;;;;;12.21;60.75;99423.47;5009481;28;20046;-46
2022/05/11 03:48:00;;;;;;;6.82;2.05;;;;;;;12.23;59.81;99419.13;5009065;28;20123;-45
2022/05/11 03:50:28;;;;;;;4.38;1.85;;;;;;;12.20;60.42;99422.63;5004566;28;20087;-46
2022/05/11 03:52:55;;;;;;;4.68;1.90;;;;;;;12.20;61.46;99421.78;5011736;28;20196;-44
2022/05/11 03:55:24;;;;;;;8.35;2.70;;;;;;;12.21;60.68;99413.97;5006346;28;20057;-46
2022/05/11 03:57:51;;;;;;;7.97;2.17;;;;;;;12.21;60.17;99429.53;5007992;28;20057;-46
2022/05/11 04:00:21;;;;;;;5.25;1.45;;;;;;;12.20;61.03;99416.59;5006283;28;20808;-47
2022/05/11 04:02:49;;;;;;;5.55;1.23;;;;;;;12.18;60.58;99414.00;5008026;28;20046;-47
2022/05/11 04:05:18;;;;;;;3.95;1.10;;;;;;;12.18;60.28;99408.81;5005914;28;20042;-44
2022/05/11 04:07:44;;;;;;;7.95;1.90;;;;;;;12.17;60.18;99414.03;5009385;28;20045;-46
2022/05/11 04:10:13;;;;;;;9.18;1.90;;;;;;;12.16;60.71;99400.19;5006943;28;20045;-45
2022/05/11 04:12:40;;;;;;;5.03;1.40;;;;;;;12.17;61.73;99406.25;5006054;28;20482;-43
2022/05/11 04:15:07;;;;;;;6.70;1.83;;;;;;;12.16;61.29;99404.56;5011285;28;20111;-42
2022/05/11 04:17:35;;;;;;;4.22;3.00;;;;;;;12.14;61.49;99401.97;5012107;28;20053;-47
2022/05/11 04:20:04;;;;;;;9.93;1.50;;;;;;;12.14;61.64;99411.50;5012301;28;20053;-46
2022/05/11 04:22:31;;;;;;;8.95;2.53;;;;;;;12.11;61.80;99395.97;5009076;28;20534;-44
2022/05/11 04:24:57;;;;;;;7.53;1.77;;;;;;;12.11;62.15;99395.97;5012501;28;20056;-45
2022/05/11 04:27:24;;;;;;;6.03;1.75;;;;;;;12.10;62.43;99399.47;5012778;28;20120;-47
2022/05/11 04:29:51;;;;;;;5.10;1.77;;;;;;;12.06;61.73;99399.53;5008997;28;20053;-43
2022/05/11 04:32:18;;;;;;;4.57;1.70;;;;;;;12.04;62.83;99396.09;5012051;28;20544;-43
2022/05/11 04:34:44;;;;;;;9.32;2.10;;;;;;;12.08;61.69;99386.50;5008856;28;20054;-46
2022/05/11 04:37:12;;;;;;;4.50;1.77;;;;;;;12.08;62.77;99389.97;5014540;28;20100;-44
2022/05/11 04:39:39;;;;;;;6.53;2.45;;;;;;;12.06;62.53;99389.13;5009783;28;20056;-43
2022/05/11 04:42:08;;;;;;;7.10;2.50;;;;;;;12.07;62.86;99390.00;5007452;28;20084;-43
2022/05/11 04:44:35;;;;;;;9.40;1.70;;;;;;;12.06;62.72;99389.13;5008805;28;20127;-45
2022/05/11 04:47:07;;;;;;;3.85;1.63;;;;;;;12.04;63.23;99380.50;5004958;28;20054;-42
2022/05/11 04:49:34;;;;;;;7.55;1.85;;;;;;;12.03;62.59;99381.38;5011271;28;20573;-47
2022/05/11 04:52:08;;;;;;;5.65;1.95;;;;;;;12.05;62.57;99386.53;5016593;28;20132;-44
2022/05/11 04:54:37;;;;;;;12.07;2.88;;;;;;;12.04;62.57;99390.91;5013382;28;20543;-47
2022/05/11 04:57:05;;;;;;;7.32;2.42;;;;;;;12.03;62.47;99383.97;5009573;28;20866;-45
2022/05/11 04:59:33;;;;;;;5.82;2.40;;;;;;;12.02;63.00;99379.69;5003684;28;20498;-44
2022/05/11 05:02:01;;;;;;;6.07;1.42;;;;;;;12.02;62.36;99387.47;5011418;28;20422;-47
2022/05/11 05:04:28;;;;;;;5.03;1.80;;;;;;;12.01;63.40;99379.69;5010286;28;20128;-46
2022/05/11 05:06:55;;;;;;;6.47;2.03;;;;;;;12.00;64.04;99367.63;5005097;28;20095;-49
2022/05/11 05:09:22;;;;;;;5.07;1.85;;;;;;;11.99;63.59;99377.13;5011589;28;20050;-46
2022/05/11 05:11:50;;;;;;;4.88;1.67;;;;;;;12.00;64.13;99381.47;5008085;28;21759;-43
2022/05/11 05:14:16;;;;;;;6.40;2.63;;;;;;;11.97;63.56;99373.72;5007926;28;20054;-44
2022/05/11 05:16:43;;;;;;;3.55;1.25;;;;;;;11.97;64.03;99365.94;5006038;28;20437;-45
2022/05/11 05:19:11;;;;;;;9.23;2.13;;;;;;;11.96;63.79;99377.22;5012091;28;20737;-47
2022/05/11 05:21:37;;;;;;;5.55;2.17;;;;;;;11.95;64.41;99385.88;5009827;28;20046;-45
2022/05/11 05:24:04;;;;;;;11.90;1.52;;;;;;;11.96;64.37;99362.47;5010283;28;20456;-47
2022/05/11 05:26:31;;;;;;;7.35;2.78;;;;;;;11.96;64.69;99346.06;5004882;28;20116;-44
2022/05/11 05:31:44;;;;;;;10.05;2.55;;;;;;;11.95;64.70;99367.69;5009720;28;20057;-47
2022/05/11 05:34:11;;;;;;;9.68;2.33;;;;;;;11.94;64.90;99359.06;5012256;28;20053;-43
2022/05/11 05:36:39;;;;;;;8.02;2.08;;;;;;;11.95;64.02;99370.28;5008234;28;20045;-44
2022/05/11 05:39:06;;;;;;;6.47;2.08;;;;;;;11.94;64.82;99366.88;5008906;28;20046;-47
2022/05/11 05:41:33;;;;;;;6.45;1.98;;;;;;;11.95;64.67;99365.09;5007352;28;20042;-46
2022/05/11 05:44:00;;;;;;;7.05;2.47;;;;;;;11.94;65.20;99372.06;5007593;28;20708;-47
2022/05/11 05:46:27;;;;;;;4.57;2.22;;;;;;;11.95;65.79;99362.50;5009310;28;20042;-44
2022/05/11 05:48:54;;;;;;;4.97;2.25;;;;;;;11.97;64.83;99360.75;5007886;28;20049;-47
2022/05/11 05:51:23;;;;;;;8.18;2.42;;;;;;;12.00;64.35;99373.69;5008363;28;20168;-52
2022/05/11 05:53:51;;;;;;;;;;;;;;;11.90;66.32;99366.94;5008111;28;20038;-46
2022/05/11 05:56:18;;;;;;;10.48;4.97;;;;;;;11.99;65.48;99366.75;5002297;28;19929;-49
2022/05/11 05:58:45;;;;;;;8.27;2.28;;;;;;;12.00;65.54;99373.69;5004427;28;20049;-45
2022/05/11 06:01:13;;;;;;;7.75;2.70;;;;;;;12.04;65.15;99369.25;5016380;28;20049;-46
2022/05/11 06:03:40;;;;;;;6.10;2.22;;;;;;;12.01;65.74;99370.19;4998806;28;20038;-47
2022/05/11 06:06:08;;;;;;;10.63;3.00;;;;;;;12.04;65.00;99367.53;5003154;28;20127;-46
2022/05/11 06:08:36;;;;;;;7.22;2.95;;;;;;;12.01;65.44;99359.81;5000686;28;20061;-47
2022/05/11 06:11:06;;;;;;;3.90;2.15;;;;;;;12.01;65.70;99359.81;5002923;28;20058;-48
2022/05/11 06:13:33;;;;;;;8.07;2.67;;;;;;;12.00;65.62;99365.88;5000959;28;20050;-48
2022/05/11 06:16:00;;;;;;;6.07;2.20;;;;;;;12.01;66.56;99353.75;5000993;28;20050;-49
2022/05/11 06:18:27;;;;;;;6.32;2.28;;;;;;;12.02;66.03;99345.94;5001774;28;20045;-45
2022/05/11 06:20:54;;;;;;;6.38;2.38;;;;;;;12.03;66.60;99337.25;5005151;28;20088;-47
2022/05/11 06:23:21;;;;;;;4.05;2.30;;;;;;;12.03;67.73;99341.59;5001716;28;21242;-46
2022/05/11 06:25:50;;;;;;;4.88;1.92;;;;;;;12.04;67.15;99343.31;5003039;28;20104;-48
2022/05/11 06:28:18;;;;;;;5.38;1.95;;;;;;;12.04;66.81;99351.97;5003648;28;20049;-49
2022/05/11 06:31:05;;;;;;;4.28;2.78;;;;;;;12.07;67.04;99354.53;5020429;28;20065;-45
2022/05/11 06:33:37;;;;;;;9.77;2.80;;;;;;;12.10;66.43;99355.34;5005468;28;20092;-47
2022/05/11 06:36:06;;;;;;;5.63;2.25;;;;;;;12.07;66.96;99344.16;5006872;28;20530;-50
2022/05/11 06:38:33;;;;;;;6.07;2.15;;;;;;;12.07;67.44;99348.47;5005404;28;20092;-45
2022/05/11 06:41:11;;;;;;;9.43;2.20;;;;;;;12.06;67.33;99352.81;5019605;28;20062;-50
2022/05/11 06:43:38;;;;;;;2.90;1.95;;;;;;;12.10;66.59;99352.75;5004962;28;20107;-49
2022/05/11 06:46:05;;;;;;;8.45;2.28;;;;;;;12.13;67.78;99347.50;5007024;28;20116;-46
2022/05/11 06:48:31;;;;;;;7.15;2.92;;;;;;;12.14;67.86;99344.88;5004073;28;20093;-48
2022/05/11 06:50:58;;;;;;;5.07;2.13;;;;;;;12.17;66.75;99343.94;5005745;28;20049;-46
2022/05/11 06:53:25;;;;;;;7.97;2.55;;;;;;;12.19;67.58;99360.34;5005801;28;20049;-49
2022/05/11 07:01:25;;;;;;;6.35;1.35;;;;;;;12.17;67.63;99355.19;5006214;28;20437;-48
2022/05/11 07:03:51;;;;;;;8.18;2.65;;;;;;;12.21;67.60;99348.19;5007493;28;20038;-47
2022/05/11 07:06:18;;;;;;;6.00;1.75;;;;;;;12.24;67.02;99355.06;5007024;28;20108;-51
2022/05/11 07:08:45;;;;;;;8.35;2.65;;;;;;;12.23;67.94;99359.41;5003707;28;20532;-46
2022/05/11 07:13:59;;;;;;;7.20;2.13;;;;;;;12.20;67.39;99354.28;5006414;28;20096;-48
2022/05/11 07:16:27;;;;;;;3.08;1.58;;;;;;;12.17;67.14;99364.72;5007323;28;20105;-48
2022/05/11 07:18:54;;;;;;;6.00;2.00;;;;;;;12.16;68.35;99360.41;5007578;28;20483;-46
2022/05/11 07:21:38;;;;;;;10.52;2.55;;;;;;;12.16;67.67;99363.00;5010000;28;20045;-46
2022/05/11 07:24:05;;;;;;;6.72;2.15;;;;;;;12.17;67.72;99356.94;5008565;28;20103;-49
2022/05/11 07:26:31;;;;;;;5.95;1.98;;;;;;;12.19;67.67;99363.78;5010411;28;20049;-46
2022/05/11 07:28:58;;;;;;;6.25;1.55;;;;;;;12.23;68.26;99368.94;5016698;28;20050;-45
2022/05/11 07:31:24;;;;;;;4.25;2.03;;;;;;;12.24;68.93;99353.31;5012733;28;20054;-49
2022/05/11 07:33:51;;;;;;;5.25;2.38;;;;;;;12.30;67.83;99350.59;5012014;28;20046;-47
2022/05/11 07:36:19;;;;;;;7.53;2.42;;;;;;;12.33;68.48;99355.72;5010526;28;20038;-49
2022/05/11 07:38:46;;;;;;;7.20;2.30;;;;;;;12.40;68.91;99360.78;5010983;28;20038;-46
2022/05/11 07:41:13;;;;;;;7.28;2.97;;;;;;;12.44;67.86;99357.25;5008923;28;20065;-50
2022/05/11 07:43:39;;;;;;;8.75;2.97;;;;;;;12.48;67.96;99353.69;5009843;28;20057;-48
2022/05/11 07:46:06;;;;;;;8.50;2.15;;;;;;;12.56;68.80;99346.56;5008312;28;20046;-48
2022/05/11 07:48:32;;;;;;;7.13;2.20;;;;;;;12.60;68.99;99357.78;5007601;28;20053;-49
2022/05/11 07:50:59;;;;;;;8.85;2.00;;;;;;;12.63;68.33;99356.84;5008627;28;20305;-49
2022/05/11 07:53:26;;;;;;;4.53;2.60;;;;;;;12.66;67.94;99351.59;5008029;28;20042;-46
2022/05/11 07:59:52;;;;;;;7.10;2.80;;;;;;;12.69;68.05;99351.47;5008773;28;20046;-46
2022/05/11 08:01:26;;;;;;;5.00;2.70;;;;;;;12.76;68.99;99347.88;5008082;28;20482;-51
2022/05/11 08:03:52;;;;;;;10.45;2.83;;;;;;;12.80;69.01;99344.31;5008433;28;20057;-48
2022/05/11 08:06:19;;;;;;;5.00;2.47;;;;;;;12.81;68.63;99335.63;5010705;28;20133;-47
2022/05/11 08:08:47;;;;;;;5.38;2.13;;;;;;;12.79;68.91;99340.00;5010016;28;20084;-50
2022/05/11 08:11:13;;;;;;;5.45;2.13;;;;;;;12.83;67.89;99348.56;5008061;28;20078;-50
2022/05/11 08:13:40;;;;;;;7.28;1.90;;;;;;;12.89;68.83;99344.97;5006251;28;20108;-49
2022/05/11 08:16:06;;;;;;;6.80;2.08;;;;;;;12.96;68.97;99343.94;5010446;28;20387;-46
2022/05/11 08:18:33;;;;;;;7.13;2.13;;;;;;;13.02;68.76;99343.81;5009646;28;20085;-45
2022/05/11 08:21:01;;;;;;;4.95;2.38;;;;;;;13.10;69.10;99336.66;5010011;28;20127;-51
2022/05/11 08:23:28;;;;;;;8.10;2.10;;;;;;;13.15;69.03;99333.09;5009533;28;20421;-50
2022/05/11 08:25:57;;;;;;;5.13;2.70;;;;;;;13.16;68.29;99334.78;5009441;28;20037;-51
2022/05/11 08:28:25;;;;;;;2.78;1.63;;;;;;;13.18;68.82;99327.81;5005569;28;20067;-47
2022/05/11 08:33:41;;;;;;;3.67;1.80;;;;;;;13.22;68.23;99324.25;5005459;28;20188;-48
2022/05/11 08:36:28;;;;;;;4.82;2.15;;;;;;;13.19;68.22;99324.31;5006501;28;20125;-50
2022/05/11 08:38:58;;;;;;;6.80;1.95;;;;;;;13.21;69.20;99325.16;5007064;28;20049;-48
2022/05/11 08:41:49;;;;;;;7.88;2.10;;;;;;;13.22;69.05;99321.66;5004741;28;20054;-49
2022/05/11 08:57:54;;;;;;;4.68;1.40;;;;;;;13.92;68.59;99303.38;5164514;27;20389;-50
2022/05/11 09:00:22;;;;;;;4.78;1.27;;;;;;;13.94;68.03;99296.34;5097668;27;20044;-46
2022/05/11 09:02:52;;;;;;;4.50;0.80;;;;;;;14.01;68.71;99297.88;5078063;28;20048;-48
2022/05/11 09:05:23;;;;;;;6.00;1.40;;;;;;;14.03;68.45;99301.31;5088907;28;20134;-47
2022/05/11 09:07:53;;;;;;;3.30;1.17;;;;;;;14.08;68.79;99299.41;5101148;28;20047;-51
2022/05/11 09:13:10;;;;;;;6.22;0.98;;;;;;;14.11;67.95;99294.13;5073673;27;20447;-55
2022/05/11 09:29:57;;;;;;;5.05;1.00;;;;;;;14.11;68.97;99270.69;5139867;27;20393;-51
2022/05/11 09:32:36;;;;;;;2.72;1.00;;;;;;;14.03;69.29;99266.59;5117187;28;20097;-49
2022/05/11 10:05:07;;;;;;;10.23;1.48;;;;;;;13.82;69.08;99220.31;5053981;27;20655;-51
2022/05/11 10:07:56;;;;;;;6.05;1.30;;;;;;;13.73;69.53;99212.78;5018327;28;20073;-51
2022/05/11 10:10:37;;;;;;;8.13;1.35;;;;;;;13.67;69.52;99220.75;5036880;28;20064;-50
2022/05/11 10:13:16;;;;;;;6.10;1.52;;;;;;;13.64;69.70;99210.47;5027031;28;20046;-49
2022/05/11 10:40:22;;;;;;;5.80;1.65;;;;;;;13.22;71.45;99194.25;5069628;27;20407;-49
2022/05/11 10:46:14;;;;;;;9.32;1.67;;;;;;;13.14;72.28;99189.22;5053294;27;20432;-49
2022/05/11 15:03:34;;;;;;;1.67;1.58;;;;;;;16.92;56.97;99233.84;5031661;28;20054;-48
2022/05/11 15:06:00;;;;;;;3.78;1.48;;;;;;;16.93;57.70;99239.00;5014318;28;20053;-45
2022/05/11 15:08:28;;;;;;;2.75;2.08;;;;;;;16.89;57.47;99232.19;5019538;28;20119;-49
2022/05/11 15:13:41;;;;;;;1.67;1.58;;;;;;;16.73;55.22;99233.75;4994439;28;20061;-47
2022/05/11 15:16:10;;;;;;;3.22;1.75;;;;;;;16.77;55.98;99232.72;5018957;28;20080;-47
2022/05/11 15:18:37;;;;;;;3.80;2.17;;;;;;;16.82;56.50;99236.00;5048472;28;20054;-46
2022/05/11 15:21:05;;;;;;;2.67;1.95;;;;;;;16.91;56.96;99237.34;5020413;28;20060;-50
2022/05/11 15:23:32;;;;;;;2.45;2.13;;;;;;;16.90;55.27;99233.91;5017440;28;20096;-50
2022/05/11 15:25:59;;;;;;;2.13;1.92;;;;;;;16.77;55.34;99224.88;5016889;28;20080;-48
2022/05/11 15:28:25;;;;;;;2.28;1.98;;;;;;;16.70;55.08;99232.97;5019084;28;20544;-49
2022/05/11 15:30:52;;;;;;;1.98;1.60;;;;;;;16.67;55.31;99234.84;5017124;28;20046;-50
2022/05/11 15:33:23;;;;;;;3.08;1.80;;;;;;;16.82;56.19;99236.00;5014985;28;20088;-46
2022/05/11 15:35:51;;;;;;;4.10;2.75;;;;;;;16.81;55.58;99237.75;5002273;28;20085;-45
2022/05/11 15:38:35;;;;;;;47.75;17.88;;;;;;;16.85;55.65;99245.47;5013694;28;20788;-44
2022/05/11 15:41:07;;;;;;;20.83;7.55;;;;;;;16.79;55.16;99243.97;5017185;28;20552;-46
2022/05/11 15:43:36;;;;;;;7.07;2.85;;;;;;;16.68;55.67;99245.25;5019326;28;20061;-45
2022/05/11 15:46:03;;;;;;;;;;;;;;;16.48;55.05;99253.06;5018462;28;20083;-46
2022/05/11 15:48:32;;;;;;;3.38;1.73;;;;;;;16.68;55.83;99250.50;5020710;28;19922;-50
2022/05/11 15:51:00;;;;;;;17.85;9.00;;;;;;;16.88;56.25;99251.41;5017389;28;20052;-44
2022/05/11 15:53:30;;;;;;;5.93;4.35;;;;;;;16.96;55.54;99254.56;5014903;28;20096;-45
2022/05/11 15:55:58;;;;;;;3.55;3.20;;;;;;;16.99;55.30;99257.97;5016534;28;20057;-51
2022/05/11 15:58:26;;;;;;;2.30;1.90;;;;;;;16.94;54.80;99250.31;5015080;28;20069;-46
2022/05/11 16:00:53;;;;;;;2.58;1.52;;;;;;;16.93;55.12;99253.84;5016528;28;20486;-46
2022/05/11 16:03:20;;;;;;;2.72;1.73;;;;;;;17.00;54.63;99264.91;5012759;28;20046;-44
2022/05/11 16:05:50;;;;;;;3.70;1.42;;;;;;;17.03;53.69;99272.63;5017390;28;20155;-49
2022/05/11 16:08:17;;;;;;;2.03;1.70;;;;;;;17.06;53.90;99280.38;5018463;28;20497;-49
2022/05/11 16:10:44;;;;;;;2.47;1.55;;;;;;;17.09;53.35;99275.84;5015325;28;20042;-49
2022/05/11 16:13:11;;;;;;;2.72;1.65;;;;;;;17.01;51.19;99279.69;5022602;28;20088;-54
2022/05/11 16:15:37;;;;;;;2.50;1.58;;;;;;;17.07;51.78;99287.31;5003784;28;20066;-46
2022/05/11 16:20:52;;;;;;;1.50;1.40;;;;;;;17.12;51.03;99292.34;5003863;28;20100;-48
2022/05/11 16:23:22;;;;;;;2.03;1.23;;;;;;;17.03;50.71;99290.94;5002093;28;20042;-46
2022/05/11 16:25:49;;;;;;;3.80;1.70;;;;;;;16.87;50.85;99302.03;5004055;28;20807;-48
2022/05/11 16:28:15;;;;;;;4.03;1.90;;;;;;;16.65;50.37;99312.53;5022550;28;20144;-47
2022/05/11 16:30:42;;;;;;;5.47;1.90;;;;;;;16.59;50.63;99313.63;5005091;28;20041;-46
2022/05/11 16:33:09;;;;;;;3.50;1.83;;;;;;;16.42;51.26;99322.94;5002802;28;20104;-47
2022/05/11 16:35:36;;;;;;;4.78;1.80;;;;;;;16.31;51.51;99325.97;5000051;28;20045;-45
2022/05/11 16:38:02;;;;;;;3.28;2.10;;;;;;;16.28;51.44;99340.94;5002542;28;20673;-47
2022/05/11 16:40:33;;;;;;;2.10;1.45;;;;;;;16.18;51.47;99351.72;5005534;28;20168;-52
2022/05/11 16:43:01;;;;;;;2.20;1.60;;;;;;;16.11;52.43;99354.63;5005774;28;20050;-45
2022/05/11 16:45:28;;;;;;;4.05;2.10;;;;;;;16.03;53.08;99353.16;5028971;28;20045;-46
2022/05/11 16:47:55;;;;;;;3.80;1.55;;;;;;;16.00;53.98;99358.47;5016279;28;20046;-47
2022/05/11 16:50:21;;;;;;;2.55;1.65;;;;;;;16.12;54.35;99357.19;5008930;28;20077;-48
2022/05/11 16:52:49;;;;;;;2.38;1.95;;;;;;;16.21;54.67;99365.59;5005015;28;20497;-48
2022/05/11 16:55:16;;;;;;;2.17;1.77;;;;;;;16.31;54.77;99367.78;5009347;28;20042;-44
2022/05/11 16:57:43;;;;;;;2.20;2.00;;;;;;;16.29;54.58;99367.00;5008749;28;20115;-48
2022/05/11 17:00:13;;;;;;;2.85;2.08;;;;;;;16.29;53.39;99380.06;5009882;28;20100;-46
2022/05/11 17:02:40;;;;;;;2.55;1.63;;;;;;;16.09;53.62;99382.56;5007428;28;20053;-46
2022/05/11 17:05:24;;;;;;;3.38;1.73;;;;;;;15.93;53.41;99394.38;5008122;28;20044;-49
2022/05/11 17:07:51;;;;;;;5.50;1.92;;;;;;;15.81;54.42;99392.22;5008307;28;20058;-45
2022/05/11 17:10:37;;;;;;;5.72;1.77;;;;;;;15.66;54.40;99394.44;5010208;28;20087;-48
2022/05/11 17:13:07;;;;;;;3.13;1.77;;;;;;;15.65;55.02;99410.16;5006105;28;20072;-51
2022/05/11 17:15:34;;;;;;;;;;;;;;;15.55;55.76;99412.22;5007088;28;20457;-48
2022/05/11 17:18:02;;;;;;;4.80;2.03;;;;;;;15.65;55.23;99410.16;5005889;28;19921;-47
2022/05/11 17:20:35;;;;;;;3.05;2.28;;;;;;;15.65;55.02;99416.22;5007479;28;20082;-45
2022/05/11 17:23:02;;;;;;;2.60;1.60;;;;;;;15.65;54.93;99418.84;5001046;28;20046;-49
2022/05/11 17:25:29;;;;;;;4.05;2.03;;;;;;;15.61;55.56;99430.28;5006401;28;20050;-50
2022/05/11 17:27:56;;;;;;;2.90;2.25;;;;;;;15.47;55.14;99432.50;5003784;28;20054;-48
2022/05/11 17:30:23;;;;;;;2.85;2.17;;;;;;;15.20;56.03;99435.94;5004279;28;20042;-49
2022/05/11 17:32:50;;;;;;;3.47;1.92;;;;;;;14.87;54.90;99450.00;5002997;28;20096;-46
2022/05/11 17:35:17;;;;;;;2.47;1.85;;;;;;;14.63;55.08;99457.59;5003363;28;20042;-45
2022/05/11 17:37:44;;;;;;;2.28;1.85;;;;;;;14.38;54.91;99466.13;5004782;28;20501;-47
2022/05/11 17:40:12;;;;;;;4.63;1.95;;;;;;;14.34;54.75;99472.31;5003101;28;20046;-48
2022/05/11 17:42:40;;;;;;;3.15;1.67;;;;;;;14.24;54.79;99470.84;5009475;28;20053;-47
2022/05/11 17:45:11;;;;;;;2.40;1.58;;;;;;;14.30;55.40;99468.09;5004628;28;20064;-46
2022/05/11 17:47:39;;;;;;;2.50;1.58;;;;;;;14.29;56.54;99479.41;4981505;28;20054;-44
2022/05/11 17:50:07;;;;;;;2.20;1.98;;;;;;;14.28;56.34;99482.91;5002687;28;20053;-49
2022/05/11 17:52:37;;;;;;;2.00;1.88;;;;;;;14.24;56.98;99487.34;5006218;28;20088;-47
2022/05/11 17:55:05;;;;;;;3.30;1.70;;;;;;;14.19;57.13;99496.19;5003546;28;20050;-46
2022/05/11 17:57:31;;;;;;;3.35;1.63;;;;;;;14.20;56.57;99501.34;5005916;28;20204;-49
2022/05/11 17:59:58;;;;;;;3.28;1.83;;;;;;;14.22;57.88;99501.31;5020731;28;20037;-46
2022/05/11 18:02:25;;;;;;;3.75;1.63;;;;;;;14.26;57.15;99510.75;5019133;28;20050;-52
2022/05/11 18:04:53;;;;;;;2.38;1.73;;;;;;;14.30;57.40;99511.50;5008098;28;20064;-44